Malaysia Virtual Airlines Airport Information Service

Chiang Mai

ICAO: VTCC Country: Thailand
Latitude: 18.7667 Longitude: 98.9667
Latest Arrival : AK856 (WMKK-VTCC) Latest Departure : AK857 (VTCC-WMKK)


WX CaptureLIVE
Data provided by noaa.gov | Fetched at 06:22:28

METAR : VTCC 290600Z 35006KT 9999 FEW035 29/17 Q1014 NOSIG

TAF : VTCC 290500Z 2906/3012 36005KT 9999 SCT035 BECMG 2913/2915 23005KT BECMG 2918/2920 01005KT


Runway Data for VTCC
Data provided by openaviationdata.com

Runway ID Mag Var Hdg Length Elevation Surface ILS Freq ILS Id ILS Slope
18 0 180° 10104 ft 1036 ft Asphalt -- -- --
36 0 10104 ft 1036 ft Asphalt 109.9 ICMA 3

Chiang Mai, Thailand
Use only for reference purposes



Not for navigational purposes.